Terminal Aerodrome Forecast
Issued by NWS Springfield, MO

Home | Current Version | Previous Version | Text Only | Print | Product List | Glossary On
Versions: 1 2 3 4 5 6 7 8 9 10 11 12 13 14 15 16 17 18 19
653
FTUS43 KSGF 142026 AAB
TAFSGF
TAF AMD
KSGF 142026Z 1420/1518 19007KT P6SM OVC010
     FM150500 VRB03KT 6SM BR SCT090
     FM150800 VRB03KT 4SM BR BKN090
     FM151600 19006KT P6SM BKN080=

USA.gov is the U.S. government's official web portal to all federal, state and local government web resources and services.